createdAt,value
2018-08-13T00:03:57.149Z,81.70
2018-08-13T00:06:25.449Z,83.10
2018-08-13T00:08:53.893Z,82.90
2018-08-13T02:47:56.865Z,93.10
2018-08-13T02:50:25.508Z,93.20
2018-08-13T02:52:53.940Z,93.20
2018-08-13T02:55:22.376Z,93.10
2018-08-13T02:57:50.729Z,93.00
2018-08-13T03:00:19.300Z,92.90
2018-08-13T03:02:48.061Z,93.10
2018-08-13T03:05:16.477Z,92.70
2018-08-13T03:07:45.028Z,92.50
2018-08-13T03:10:13.974Z,92.90
2018-08-13T03:12:43.145Z,93.10
2018-08-13T03:15:14.759Z,92.90
2018-08-13T03:17:43.385Z,92.90
2018-08-13T03:20:11.854Z,92.60
2018-08-13T03:22:40.392Z,92.90
2018-08-13T04:03:25.064Z,92.40
2018-08-13T04:05:54.852Z,90.40
2018-08-13T04:08:23.356Z,90.20
2018-08-13T04:10:51.942Z,90.30
2018-08-13T04:13:20.459Z,91.80
2018-08-13T04:15:48.922Z,92.60
2018-08-13T04:18:17.319Z,94.00
2018-08-13T04:20:45.724Z,94.90
2018-08-13T04:23:14.105Z,97.40
2018-08-13T04:25:42.443Z,98.10
2018-08-13T04:28:10.808Z,99.90
2018-08-13T04:30:39.146Z,99.90
2018-08-13T04:33:07.514Z,99.90
2018-08-13T04:35:35.893Z,99.90
2018-08-13T04:38:04.315Z,99.90
2018-08-13T04:40:32.646Z,99.90
2018-08-13T04:43:01.008Z,99.90
2018-08-13T04:45:29.425Z,99.90
2018-08-13T04:47:57.780Z,99.90
2018-08-13T04:50:26.176Z,99.90
2018-08-13T04:52:54.489Z,99.90
2018-08-13T04:55:22.879Z,99.90
2018-08-13T04:57:51.341Z,99.90
2018-08-13T05:00:19.709Z,99.90
2018-08-13T05:02:48.053Z,99.90
2018-08-13T05:05:16.482Z,99.90
2018-08-13T05:07:44.831Z,99.90
2018-08-13T05:10:13.184Z,99.90
2018-08-13T05:12:41.861Z,99.90
2018-08-13T05:15:11.035Z,99.90
2018-08-13T05:17:39.501Z,99.90
2018-08-13T05:20:09.205Z,99.90
2018-08-13T05:22:37.525Z,99.90
2018-08-13T05:25:07.423Z,99.90
2018-08-13T05:27:35.866Z,99.90
2018-08-13T05:30:05.715Z,99.90
2018-08-13T05:32:34.046Z,99.90
2018-08-13T05:35:02.382Z,99.90
2018-08-13T05:37:30.797Z,99.90
2018-08-13T05:39:59.242Z,99.90
2018-08-13T05:42:27.688Z,99.90
2018-08-13T05:44:56.117Z,99.90
2018-08-13T05:47:24.488Z,99.90
2018-08-13T05:49:52.845Z,99.90
2018-08-13T05:52:21.271Z,99.90
2018-08-13T05:54:49.654Z,99.90
2018-08-13T05:57:18.038Z,99.90
2018-08-13T05:59:46.439Z,99.90
2018-08-13T06:02:14.842Z,99.90
2018-08-13T06:04:43.226Z,99.90
2018-08-13T06:07:11.598Z,99.90
2018-08-13T06:09:40.019Z,99.90
2018-08-13T06:12:08.385Z,99.90
2018-08-13T06:14:36.795Z,99.90
2018-08-13T06:17:05.165Z,99.90
2018-08-13T06:19:33.485Z,99.90
2018-08-13T06:22:01.909Z,99.90
2018-08-13T06:24:30.266Z,99.90
2018-08-13T06:26:58.654Z,99.90
2018-08-13T06:29:26.997Z,99.90
2018-08-13T06:31:55.555Z,99.90
2018-08-13T06:34:23.921Z,99.90
2018-08-13T06:36:52.286Z,99.90
2018-08-13T06:39:20.645Z,99.90
2018-08-13T06:41:49.037Z,99.90
2018-08-13T06:44:17.499Z,99.90
2018-08-13T06:46:45.813Z,99.90
2018-08-13T06:49:14.225Z,99.90
2018-08-13T06:51:42.639Z,99.90
2018-08-13T06:54:11.055Z,99.90
2018-08-13T06:56:39.468Z,99.90
2018-08-13T06:59:07.852Z,99.90
2018-08-13T07:01:36.367Z,99.90
2018-08-13T07:04:04.791Z,99.90
2018-08-13T07:06:33.133Z,99.90
2018-08-13T07:09:01.574Z,99.90
2018-08-13T07:11:30.061Z,99.90
2018-08-13T07:13:58.475Z,99.90
2018-08-13T07:16:26.841Z,99.90
2018-08-13T07:18:55.177Z,99.90
2018-08-13T07:21:23.631Z,99.90
2018-08-13T07:23:51.969Z,99.90
2018-08-13T07:26:20.394Z,99.90
2018-08-13T07:28:48.858Z,99.90
2018-08-13T07:31:17.237Z,99.90
2018-08-13T07:33:45.722Z,99.90
2018-08-13T07:36:14.104Z,99.90
2018-08-13T07:38:42.533Z,99.90
2018-08-13T07:41:10.921Z,99.90
2018-08-13T07:43:39.284Z,99.90
2018-08-13T07:46:07.727Z,99.90
2018-08-13T07:48:36.143Z,99.90
2018-08-13T07:51:04.509Z,99.90
2018-08-13T07:53:32.887Z,99.90
2018-08-13T07:56:01.285Z,99.90
2018-08-13T07:58:29.862Z,99.90
2018-08-13T08:00:58.269Z,99.90
2018-08-13T08:03:26.820Z,99.90
2018-08-13T08:05:55.189Z,99.90
2018-08-13T08:08:23.570Z,99.90
2018-08-13T08:10:51.962Z,99.90
2018-08-13T08:13:20.561Z,99.90
2018-08-13T08:15:48.901Z,99.90
2018-08-13T08:18:17.321Z,99.90
2018-08-13T08:20:45.626Z,99.90
2018-08-13T08:23:13.995Z,99.90
2018-08-13T08:25:42.372Z,99.90
2018-08-13T08:28:10.725Z,99.90
2018-08-13T08:30:39.105Z,99.90
2018-08-13T08:33:07.493Z,99.90
2018-08-13T08:35:35.853Z,99.90
2018-08-13T08:38:04.308Z,99.90
2018-08-13T08:40:32.764Z,99.90
2018-08-13T08:43:01.072Z,99.90
2018-08-13T08:45:29.443Z,99.90
2018-08-13T08:47:58.018Z,99.90
2018-08-13T08:50:26.728Z,99.90
2018-08-13T08:52:55.102Z,99.90
2018-08-13T08:55:23.520Z,99.90
2018-08-13T08:57:51.945Z,99.90
2018-08-13T09:00:21.760Z,99.90
2018-08-13T09:02:50.165Z,99.90
2018-08-13T09:05:19.178Z,99.90
2018-08-13T09:07:47.773Z,99.90
2018-08-13T09:10:16.271Z,99.90
2018-08-13T09:12:44.661Z,99.90
2018-08-13T09:15:15.034Z,99.90
2018-08-13T09:17:55.102Z,99.90
2018-08-13T09:20:34.979Z,99.90
2018-08-13T09:23:14.695Z,99.90
2018-08-13T09:25:54.473Z,99.90
2018-08-13T09:28:34.239Z,99.90
2018-08-13T09:31:15.527Z,99.90
2018-08-13T09:33:55.240Z,99.90
2018-08-13T09:36:23.613Z,99.90
2018-08-13T09:38:52.028Z,99.90
2018-08-13T09:41:20.649Z,99.90
2018-08-13T09:43:49.004Z,99.90
2018-08-13T09:46:17.339Z,99.90
2018-08-13T09:48:45.732Z,99.90
2018-08-13T09:51:14.093Z,99.90
2018-08-13T09:53:42.485Z,99.90
2018-08-13T09:56:10.849Z,99.90
2018-08-13T09:58:39.355Z,99.90
2018-08-13T10:01:09.746Z,99.90
2018-08-13T10:03:38.330Z,99.90
2018-08-13T10:06:06.794Z,99.90
2018-08-13T10:08:35.214Z,99.90
2018-08-13T10:11:03.874Z,99.90
2018-08-13T10:13:34.302Z,99.90
2018-08-13T10:16:02.765Z,99.90
2018-08-13T10:18:31.586Z,99.90
2018-08-13T10:21:02.199Z,99.90
2018-08-13T10:23:31.051Z,99.90
2018-08-13T10:26:01.213Z,99.90
2018-08-13T10:28:32.619Z,99.90
2018-08-13T10:31:04.097Z,99.90
2018-08-13T10:33:33.039Z,99.90
2018-08-13T10:36:08.150Z,99.90
2018-08-13T10:38:38.412Z,99.90
2018-08-13T10:41:15.071Z,99.90
2018-08-13T10:43:44.216Z,99.90
2018-08-13T10:46:14.065Z,99.90
2018-08-13T10:48:42.861Z,99.90
2018-08-13T10:51:11.928Z,99.90
2018-08-13T10:53:41.463Z,99.90
2018-08-13T10:56:09.995Z,99.90
2018-08-13T10:58:38.261Z,99.90
2018-08-13T11:01:06.955Z,99.90
2018-08-13T11:03:35.272Z,99.90
2018-08-13T11:06:03.703Z,99.90
2018-08-13T11:08:32.060Z,99.90
2018-08-13T11:11:00.429Z,99.90
2018-08-13T11:13:28.887Z,99.90
2018-08-13T11:15:57.272Z,99.90
2018-08-13T11:18:25.624Z,99.90
2018-08-13T11:20:53.927Z,99.90
2018-08-13T11:23:22.354Z,99.90
2018-08-13T11:25:50.669Z,99.90
2018-08-13T11:28:19.113Z,99.90
2018-08-13T11:30:47.446Z,99.90
2018-08-13T11:33:15.805Z,99.90
2018-08-13T11:35:45.215Z,99.90
2018-08-13T11:38:13.603Z,99.90
2018-08-13T11:40:42.045Z,99.90
2018-08-13T11:43:10.374Z,99.90
2018-08-13T11:45:38.944Z,99.90
2018-08-13T11:48:07.323Z,99.90
2018-08-13T11:50:35.731Z,99.90
2018-08-13T11:53:04.082Z,99.90
2018-08-13T11:55:32.469Z,99.90
2018-08-13T11:58:00.829Z,99.90
2018-08-13T12:00:29.246Z,99.90
2018-08-13T12:02:57.629Z,99.90
2018-08-13T12:05:26.090Z,99.90
2018-08-13T12:07:54.465Z,99.90
2018-08-13T12:10:22.904Z,99.90
2018-08-13T12:12:51.365Z,99.90
2018-08-13T12:15:19.716Z,99.90
2018-08-13T12:17:48.037Z,99.90
2018-08-13T12:20:22.121Z,99.90
2018-08-13T12:22:50.485Z,99.90
2018-08-13T12:25:29.943Z,99.90
2018-08-13T12:27:58.554Z,99.90
2018-08-13T12:30:27.110Z,99.90
2018-08-13T12:32:59.596Z,99.90
2018-08-13T12:35:29.575Z,99.90
2018-08-13T12:37:58.340Z,99.90
2018-08-13T12:40:27.064Z,99.90
2018-08-13T12:42:55.535Z,99.90
2018-08-13T12:45:24.942Z,99.90
2018-08-13T12:47:58.556Z,99.90
2018-08-13T12:50:30.905Z,99.90
2018-08-13T12:53:01.957Z,99.90
2018-08-13T12:55:30.846Z,99.90
2018-08-13T12:58:01.100Z,99.90
2018-08-13T13:00:30.422Z,99.90
2018-08-13T13:02:59.948Z,99.90
2018-08-13T13:05:28.673Z,99.90
2018-08-13T13:08:01.810Z,99.90
2018-08-13T13:10:30.743Z,99.90
2018-08-13T13:12:59.364Z,99.90
2018-08-13T13:15:28.509Z,99.90
2018-08-13T13:18:06.893Z,99.90
2018-08-13T13:20:35.314Z,99.90
2018-08-13T13:23:07.942Z,99.90
2018-08-13T13:25:38.071Z,99.90
2018-08-13T13:28:09.806Z,99.90
2018-08-13T13:30:48.195Z,99.90
2018-08-13T13:33:16.506Z,99.90
2018-08-13T13:35:44.888Z,99.90
2018-08-13T13:38:13.229Z,99.90
2018-08-13T13:40:41.782Z,99.90
2018-08-13T13:43:10.542Z,99.90
2018-08-13T13:45:38.998Z,99.90
2018-08-13T13:48:07.562Z,99.90
2018-08-13T13:50:47.022Z,99.90
2018-08-13T13:53:31.035Z,99.90
2018-08-13T13:56:00.649Z,99.90
2018-08-13T13:58:32.549Z,99.90
2018-08-13T14:01:08.254Z,99.90
2018-08-13T14:03:40.375Z,99.90
2018-08-13T14:06:09.447Z,99.90
2018-08-13T14:08:40.179Z,99.90
2018-08-13T14:11:11.349Z,99.90
2018-08-13T14:13:39.755Z,99.90
2018-08-13T14:16:13.246Z,99.90
2018-08-13T14:18:41.781Z,99.90
2018-08-13T14:21:10.161Z,99.90
2018-08-13T14:23:40.854Z,99.90
2018-08-13T14:26:10.498Z,99.90
2018-08-13T14:28:39.013Z,99.90
2018-08-13T14:31:07.405Z,99.90
2018-08-13T14:33:35.794Z,99.90
2018-08-13T14:36:04.258Z,99.90
2018-08-13T14:38:49.901Z,99.90
2018-08-13T14:41:25.301Z,99.90
2018-08-13T14:43:53.716Z,99.90
2018-08-13T14:46:22.105Z,99.90
2018-08-13T14:48:50.359Z,99.90
2018-08-13T14:51:36.632Z,99.90
2018-08-13T14:54:08.027Z,99.90
2018-08-13T14:56:38.814Z,99.90
2018-08-13T14:59:28.800Z,99.90
2018-08-13T15:02:09.937Z,99.90
2018-08-13T15:04:43.911Z,99.90
2018-08-13T15:07:24.701Z,99.90
2018-08-13T15:10:07.437Z,99.90
2018-08-13T15:12:43.915Z,99.90
2018-08-13T15:15:23.506Z,99.90
2018-08-13T15:18:13.026Z,99.90
2018-08-13T15:23:22.569Z,99.90
2018-08-13T15:26:00.287Z,97.50
2018-08-13T15:28:39.017Z,97.30
2018-08-13T15:31:16.398Z,96.60
2018-08-13T15:33:49.356Z,97.40
2018-08-13T15:36:19.226Z,94.90
2018-08-13T15:38:52.558Z,95.90
2018-08-13T15:41:27.783Z,96.00
2018-08-13T15:44:03.618Z,95.00
2018-08-13T15:52:34.313Z,94.50
2018-08-13T15:55:08.692Z,95.10
2018-08-13T15:57:43.955Z,95.80
2018-08-13T16:00:23.069Z,96.70
2018-08-13T16:02:56.350Z,96.80
2018-08-13T16:05:31.071Z,97.20
2018-08-13T16:08:04.862Z,97.90
2018-08-13T16:10:38.283Z,97.40
2018-08-13T16:13:07.034Z,98.70
2018-08-13T16:15:40.210Z,99.20
2018-08-13T16:18:17.555Z,99.90
2018-08-13T16:20:45.968Z,99.90
2018-08-13T16:23:14.337Z,99.90
2018-08-13T16:28:22.674Z,99.90
2018-08-13T16:30:51.018Z,99.90
2018-08-13T16:33:20.505Z,99.90
2018-08-13T16:35:55.635Z,99.90
2018-08-13T16:38:42.506Z,99.90
2018-08-13T16:41:11.090Z,99.90
2018-08-13T16:46:25.157Z,99.20
2018-08-13T16:48:53.491Z,99.10
2018-08-13T16:54:06.147Z,99.60
2018-08-13T16:56:37.168Z,99.90
2018-08-13T16:59:16.517Z,99.90
2018-08-13T17:01:46.222Z,99.70
2018-08-13T17:04:14.704Z,99.80
2018-08-13T17:06:43.141Z,99.70
2018-08-13T17:09:12.121Z,99.20
2018-08-13T17:11:40.691Z,98.30
2018-08-13T17:14:13.958Z,98.10
2018-08-13T17:16:44.324Z,98.00
2018-08-13T17:19:12.997Z,98.30
2018-08-13T17:21:41.553Z,97.40
2018-08-13T17:24:12.065Z,98.10
2018-08-13T17:26:40.817Z,97.30
2018-08-13T17:29:09.321Z,97.40
2018-08-13T17:31:38.414Z,96.50
2018-08-13T17:34:07.704Z,95.70
2018-08-13T17:36:36.081Z,95.00
2018-08-13T17:39:08.179Z,95.50
2018-08-13T17:41:36.613Z,95.40
2018-08-13T17:44:05.125Z,95.60
2018-08-13T17:46:33.474Z,97.10
2018-08-13T17:49:01.878Z,97.10
2018-08-13T17:51:30.338Z,96.50
2018-08-13T17:53:59.073Z,97.30
2018-08-13T17:56:27.509Z,97.00
2018-08-13T17:58:55.898Z,97.10
2018-08-13T18:01:24.310Z,96.40
2018-08-13T18:03:53.297Z,96.70
2018-08-13T18:06:21.741Z,97.00
2018-08-13T18:08:50.091Z,97.10
2018-08-13T18:11:18.546Z,97.20
2018-08-13T18:13:46.927Z,97.70
2018-08-13T18:16:15.261Z,98.70
2018-08-13T18:18:43.984Z,98.00
2018-08-13T18:21:12.385Z,98.10
2018-08-13T18:23:40.715Z,98.90
2018-08-13T18:26:09.420Z,98.70
2018-08-13T18:28:37.942Z,97.60
2018-08-13T18:31:07.060Z,98.50
2018-08-13T18:33:35.691Z,97.90
2018-08-13T18:36:04.177Z,98.00
2018-08-13T18:38:32.591Z,98.80
2018-08-13T18:41:01.043Z,99.40
2018-08-13T18:43:29.479Z,99.80
2018-08-13T18:45:57.955Z,99.90
2018-08-13T18:48:26.317Z,99.90
2018-08-13T18:50:54.704Z,99.90
2018-08-13T18:53:23.169Z,99.90
2018-08-13T18:55:51.547Z,99.90
2018-08-13T18:58:19.926Z,99.90
2018-08-13T19:00:51.513Z,99.90
2018-08-13T19:03:20.097Z,99.90
2018-08-13T19:05:48.614Z,99.90
2018-08-13T19:08:17.173Z,99.90
2018-08-13T19:10:45.749Z,99.90
2018-08-13T19:13:14.379Z,99.90
2018-08-13T19:15:42.860Z,99.90
2018-08-13T19:18:11.200Z,99.90
2018-08-13T19:20:39.770Z,99.90
2018-08-13T19:23:08.209Z,99.90
2018-08-13T19:25:36.605Z,99.90
2018-08-13T19:28:05.467Z,99.90
2018-08-13T19:30:33.935Z,99.90
2018-08-13T19:33:02.415Z,99.90
2018-08-13T19:35:31.022Z,99.90
2018-08-13T19:37:59.466Z,99.90
2018-08-13T19:40:28.044Z,99.90
2018-08-13T19:42:56.452Z,99.90
2018-08-13T19:45:25.083Z,99.90
2018-08-13T19:47:54.055Z,99.90
2018-08-13T19:50:22.495Z,99.90
2018-08-13T19:52:51.524Z,99.90
2018-08-13T19:55:20.319Z,99.90
2018-08-13T19:57:51.654Z,99.90
2018-08-13T20:00:21.724Z,99.90
2018-08-13T20:02:50.987Z,99.90
2018-08-13T20:05:21.055Z,99.90
2018-08-13T20:07:51.984Z,99.90
2018-08-13T20:10:21.017Z,99.90
2018-08-13T20:12:49.562Z,99.90
2018-08-13T20:15:18.151Z,99.90
2018-08-13T20:17:46.664Z,99.90
2018-08-13T20:20:16.429Z,99.90
2018-08-13T20:22:45.697Z,99.90
2018-08-13T20:25:15.580Z,99.90
2018-08-13T20:27:44.429Z,99.90
2018-08-13T20:30:15.193Z,99.90
2018-08-13T20:32:45.286Z,99.90
2018-08-13T20:35:13.804Z,99.90
2018-08-13T20:37:42.402Z,99.90
2018-08-13T20:40:12.923Z,99.90
2018-08-13T20:42:42.077Z,99.90
2018-08-13T20:45:13.749Z,99.90
2018-08-13T20:47:42.736Z,99.90
2018-08-13T20:50:13.953Z,99.90
2018-08-13T20:52:42.985Z,99.90
2018-08-13T20:55:15.121Z,99.90
2018-08-13T20:57:44.265Z,99.90
2018-08-13T21:00:13.987Z,99.90
2018-08-13T21:02:43.481Z,99.90
2018-08-13T21:05:12.852Z,99.90
2018-08-13T21:07:41.455Z,99.90
2018-08-13T21:10:12.178Z,99.90
2018-08-13T21:12:40.901Z,99.90
2018-08-13T21:15:11.563Z,99.90
2018-08-13T21:17:40.091Z,99.90
2018-08-13T21:20:09.338Z,99.90
2018-08-13T21:22:38.411Z,99.90
2018-08-13T21:25:09.894Z,99.90
2018-08-13T21:27:38.454Z,99.90
2018-08-13T21:30:07.116Z,99.90
2018-08-13T21:32:35.680Z,99.90
2018-08-13T21:35:04.349Z,99.90
2018-08-13T21:37:33.081Z,99.90
2018-08-13T21:40:01.577Z,99.90
2018-08-13T21:42:29.990Z,99.90
2018-08-13T21:44:58.607Z,99.90
2018-08-13T21:47:27.102Z,99.90
2018-08-13T21:49:55.640Z,99.90
2018-08-13T21:52:24.295Z,99.90
2018-08-13T21:54:52.763Z,99.90
2018-08-13T21:57:25.173Z,99.90
2018-08-13T21:59:54.891Z,99.90
2018-08-13T22:02:23.323Z,99.90
2018-08-13T22:04:51.849Z,99.90
2018-08-13T22:07:20.321Z,99.90
2018-08-13T22:09:48.705Z,99.90
2018-08-13T22:12:19.584Z,99.90
2018-08-13T22:14:48.529Z,99.90
2018-08-13T22:17:16.994Z,99.90
2018-08-13T22:19:45.495Z,99.90
2018-08-13T22:22:14.005Z,99.90
2018-08-13T22:24:53.594Z,99.90
2018-08-13T22:27:21.981Z,99.90
2018-08-13T22:29:50.361Z,99.90
2018-08-13T22:32:18.763Z,99.90
2018-08-13T22:34:47.211Z,99.90
2018-08-13T22:37:15.563Z,99.90
2018-08-13T22:39:43.957Z,99.90
2018-08-13T22:42:12.457Z,99.90
2018-08-13T22:44:40.963Z,99.90
2018-08-13T22:47:09.582Z,99.90
2018-08-13T22:49:38.060Z,99.90
2018-08-13T22:52:06.895Z,99.90
2018-08-13T22:54:35.256Z,99.90
2018-08-13T22:57:04.106Z,99.90
2018-08-13T22:59:32.828Z,99.90
